createdAt,value
2023-04-16T00:00:55.359Z,27.57
2023-04-16T00:03:23.954Z,26.88
2023-04-16T00:05:51.793Z,27.78
2023-04-16T00:08:20.193Z,31.06
2023-04-16T00:13:15.524Z,29.83
2023-04-16T00:15:43.015Z,28.07
2023-04-16T00:18:11.011Z,27.79
2023-04-16T00:20:38.793Z,28.62
2023-04-16T00:23:06.401Z,28.23
2023-04-16T00:25:33.944Z,27.95
2023-04-16T00:28:01.461Z,27.43
2023-04-16T00:30:29.538Z,27.67
2023-04-16T00:32:57.157Z,27.76
2023-04-16T00:35:24.866Z,28.35
2023-04-16T00:37:52.421Z,28.94
2023-04-16T00:40:20.136Z,28.38
2023-04-16T00:42:47.782Z,29.48
2023-04-16T00:45:15.960Z,28.16
2023-04-16T00:47:43.895Z,29.01
2023-04-16T00:50:12.130Z,29.77
2023-04-16T00:52:40.184Z,28.09
2023-04-16T00:55:08.105Z,29.31
2023-04-16T00:57:35.812Z,28.81
2023-04-16T01:00:03.531Z,28.54
2023-04-16T01:02:31.572Z,28.28
2023-04-16T01:05:01.109Z,27.87
2023-04-16T01:07:28.824Z,28.01
2023-04-16T01:09:56.558Z,27.66
2023-04-16T01:12:24.143Z,27.80
2023-04-16T01:14:53.454Z,28.35
2023-04-16T01:17:22.104Z,29.52
2023-04-16T01:19:49.606Z,30.03
2023-04-16T01:22:17.315Z,29.56
2023-04-16T01:24:45.255Z,28.91
2023-04-16T01:27:12.820Z,28.89
2023-04-16T01:29:40.555Z,28.42
2023-04-16T01:32:08.674Z,30.16
2023-04-16T01:34:41.563Z,29.34
2023-04-16T01:37:12.404Z,31.72
2023-04-16T01:39:40.066Z,29.83
2023-04-16T01:42:09.130Z,29.05
2023-04-16T01:44:36.635Z,30.08
2023-04-16T01:47:04.346Z,28.53
2023-04-16T01:49:32.369Z,27.76
2023-04-16T01:52:00.637Z,29.31
2023-04-16T01:54:28.146Z,28.74
2023-04-16T01:56:55.700Z,28.66
2023-04-16T01:59:23.315Z,28.96
2023-04-16T02:01:51.425Z,29.22
2023-04-16T02:04:19.074Z,29.58
2023-04-16T02:06:47.378Z,30.45
2023-04-16T02:09:15.094Z,29.33
2023-04-16T02:11:42.745Z,29.34
2023-04-16T02:14:10.289Z,29.76
2023-04-16T02:16:37.993Z,29.94
2023-04-16T02:19:23.270Z,29.13
2023-04-16T02:21:54.882Z,30.47
2023-04-16T02:24:22.567Z,28.56
2023-04-16T02:26:50.055Z,28.06
2023-04-16T02:29:19.651Z,28.96
2023-04-16T02:31:53.774Z,28.35
2023-04-16T02:34:21.971Z,30.09
2023-04-16T02:36:49.896Z,28.59
2023-04-16T02:39:17.696Z,28.83
2023-04-16T02:41:46.294Z,27.99
2023-04-16T02:44:14.262Z,27.58
2023-04-16T02:46:42.893Z,28.23
2023-04-16T02:49:10.910Z,29.41
2023-04-16T02:51:38.835Z,29.49
2023-04-16T02:54:06.377Z,28.80
2023-04-16T02:56:34.009Z,28.24
2023-04-16T02:59:01.716Z,29.74
2023-04-16T03:01:29.977Z,28.53
2023-04-16T03:03:57.589Z,28.13
2023-04-16T03:06:26.209Z,28.73
2023-04-16T03:08:53.873Z,29.07
2023-04-16T03:11:21.872Z,28.17
2023-04-16T03:13:49.609Z,28.51
2023-04-16T03:16:17.261Z,27.97
2023-04-16T03:18:44.927Z,28.16
2023-04-16T03:21:12.940Z,28.09
2023-04-16T03:23:40.994Z,28.88
2023-04-16T03:26:08.641Z,29.80
2023-04-16T03:28:36.466Z,29.33
2023-04-16T03:31:04.941Z,28.84
2023-04-16T03:33:32.771Z,27.92
2023-04-16T03:36:00.535Z,29.46
2023-04-16T03:38:31.234Z,28.54
2023-04-16T03:41:00.020Z,29.04
2023-04-16T03:43:28.063Z,28.36
2023-04-16T03:45:55.700Z,28.33
2023-04-16T03:48:24.364Z,28.58
2023-04-16T03:50:51.884Z,28.51
2023-04-16T03:53:21.073Z,28.17
2023-04-16T03:55:52.646Z,28.10
2023-04-16T03:58:21.851Z,28.09
2023-04-16T04:00:49.919Z,29.52
2023-04-16T04:03:18.939Z,28.23
2023-04-16T04:05:49.496Z,27.68
2023-04-16T04:08:23.840Z,28.44
2023-04-16T04:10:52.578Z,30.11
2023-04-16T04:13:22.044Z,28.77
2023-04-16T04:15:51.493Z,28.93
2023-04-16T04:18:19.170Z,28.54
2023-04-16T04:20:46.797Z,30.28
2023-04-16T04:23:17.035Z,29.25
2023-04-16T04:25:45.993Z,29.35
2023-04-16T04:28:14.687Z,28.16
2023-04-16T04:30:42.578Z,28.14
2023-04-16T04:33:10.510Z,28.00
2023-04-16T04:35:39.173Z,28.31
2023-04-16T04:38:06.814Z,27.44
2023-04-16T04:40:35.190Z,27.52
2023-04-16T04:43:04.864Z,29.00
2023-04-16T04:45:32.587Z,30.97
2023-04-16T04:48:00.687Z,29.44
2023-04-16T04:50:28.412Z,28.49
2023-04-16T04:52:56.070Z,30.39
2023-04-16T04:55:23.656Z,30.74
2023-04-16T04:57:51.692Z,29.80
2023-04-16T05:00:20.925Z,28.66
2023-04-16T05:02:54.264Z,29.51
2023-04-16T05:05:22.072Z,28.44
2023-04-16T05:07:49.942Z,28.44
2023-04-16T05:10:17.483Z,28.23
2023-04-16T05:12:48.796Z,27.59
2023-04-16T05:15:17.268Z,27.93
2023-04-16T05:17:44.933Z,27.92
2023-04-16T05:20:12.883Z,27.19
2023-04-16T05:22:40.563Z,27.42
2023-04-16T05:25:08.521Z,28.45
2023-04-16T05:27:37.067Z,27.18
2023-04-16T05:30:05.388Z,27.54
2023-04-16T05:32:33.249Z,27.61
2023-04-16T05:35:00.846Z,27.69
2023-04-16T05:37:28.521Z,27.13
2023-04-16T05:39:56.035Z,27.55
2023-04-16T05:42:23.776Z,27.74
2023-04-16T05:44:52.373Z,27.24
2023-04-16T05:47:19.891Z,26.93
2023-04-16T05:49:47.494Z,27.96
2023-04-16T05:52:15.417Z,28.72
2023-04-16T05:54:42.921Z,28.22
2023-04-16T05:57:10.760Z,26.91
2023-04-16T05:59:38.521Z,27.53
2023-04-16T06:02:06.820Z,27.15
2023-04-16T06:04:35.820Z,26.89
2023-04-16T06:07:03.578Z,27.38
2023-04-16T06:09:31.110Z,27.51
2023-04-16T06:11:59.805Z,26.88
2023-04-16T06:14:27.532Z,27.45
2023-04-16T06:16:56.645Z,28.06
2023-04-16T06:19:24.434Z,27.72
2023-04-16T06:21:53.182Z,27.16
2023-04-16T06:24:20.749Z,27.08
2023-04-16T06:26:48.285Z,27.51
2023-04-16T06:29:15.939Z,27.53
2023-04-16T06:31:43.510Z,28.12
2023-04-16T06:34:11.137Z,28.54
2023-04-16T06:36:38.705Z,28.76
2023-04-16T06:39:06.737Z,27.93
2023-04-16T06:41:34.587Z,27.92
2023-04-16T06:44:02.616Z,27.93
2023-04-16T06:46:30.927Z,28.09
2023-04-16T06:48:58.586Z,28.95
2023-04-16T06:51:26.784Z,27.78
2023-04-16T06:53:54.476Z,28.98
2023-04-16T06:56:22.037Z,28.12
2023-04-16T06:58:50.425Z,28.41
2023-04-16T07:01:18.606Z,27.77
2023-04-16T07:03:46.458Z,27.87
2023-04-16T07:06:14.187Z,28.68
2023-04-16T07:08:41.728Z,27.34
2023-04-16T07:11:09.322Z,25.67
2023-04-16T07:13:36.891Z,26.78
2023-04-16T07:16:04.908Z,29.33
2023-04-16T07:18:32.749Z,27.46
2023-04-16T07:21:01.152Z,27.71
2023-04-16T07:23:28.886Z,26.84
2023-04-16T07:25:56.609Z,28.55
2023-04-16T07:28:25.269Z,27.43
2023-04-16T07:30:52.922Z,27.18
2023-04-16T07:33:20.762Z,27.65
2023-04-16T07:35:48.496Z,27.11
2023-04-16T07:38:16.538Z,26.74
2023-04-16T07:40:44.497Z,26.83
2023-04-16T07:43:13.910Z,26.16
2023-04-16T07:45:41.649Z,27.26
2023-04-16T07:48:09.170Z,26.12
2023-04-16T07:50:37.267Z,25.94
2023-04-16T07:53:07.537Z,25.62
2023-04-16T07:55:35.451Z,24.80
2023-04-16T07:58:03.107Z,26.47
2023-04-16T08:00:30.686Z,27.23
2023-04-16T08:02:58.706Z,25.78
2023-04-16T08:05:26.403Z,26.85
2023-04-16T08:07:53.915Z,25.22
2023-04-16T08:10:21.597Z,24.80
2023-04-16T08:12:49.213Z,26.13
2023-04-16T08:15:16.800Z,24.77
2023-04-16T08:17:44.590Z,24.02
2023-04-16T08:20:15.769Z,24.16
2023-04-16T08:22:46.086Z,25.24
2023-04-16T08:25:14.649Z,27.01
2023-04-16T08:27:42.498Z,25.73
2023-04-16T08:30:10.411Z,24.89
2023-04-16T08:32:38.539Z,24.38
2023-04-16T08:35:06.397Z,24.12
2023-04-16T08:37:33.946Z,24.72
2023-04-16T08:40:02.320Z,24.23
2023-04-16T08:42:53.103Z,22.81
2023-04-16T08:45:20.892Z,23.99
2023-04-16T08:47:50.406Z,24.14
2023-04-16T08:50:26.721Z,21.74
2023-04-16T08:53:18.454Z,22.00
2023-04-16T08:55:49.624Z,24.02
2023-04-16T08:58:22.220Z,23.55
2023-04-16T09:00:50.588Z,24.66
2023-04-16T09:03:21.736Z,24.75
2023-04-16T09:05:50.446Z,24.06
2023-04-16T09:08:18.662Z,23.18
2023-04-16T09:10:46.845Z,23.36
2023-04-16T09:13:16.957Z,23.75
2023-04-16T09:15:44.585Z,24.98
2023-04-16T09:18:12.400Z,24.12
2023-04-16T09:20:40.047Z,23.51
2023-04-16T09:23:09.395Z,24.82
2023-04-16T09:25:38.680Z,24.29
2023-04-16T09:28:06.486Z,24.42
2023-04-16T09:30:34.884Z,23.67
2023-04-16T09:33:12.841Z,22.93
2023-04-16T09:35:48.038Z,22.68
2023-04-16T09:38:16.438Z,24.18
2023-04-16T09:40:44.143Z,22.11
2023-04-16T09:43:16.465Z,22.52
2023-04-16T09:45:55.221Z,22.41
2023-04-16T09:48:33.508Z,22.09
2023-04-16T09:51:01.740Z,23.29
2023-04-16T09:53:31.362Z,22.80
2023-04-16T09:56:00.409Z,22.41
2023-04-16T09:58:29.127Z,22.70
2023-04-16T10:01:01.502Z,22.51
2023-04-16T10:03:33.305Z,22.49
2023-04-16T10:06:09.466Z,22.49
2023-04-16T10:08:37.203Z,22.87
2023-04-16T10:11:05.453Z,22.12
2023-04-16T10:13:33.122Z,21.24
2023-04-16T10:16:01.266Z,21.38
2023-04-16T10:18:29.254Z,21.73
2023-04-16T10:20:57.588Z,21.09
2023-04-16T10:23:26.578Z,21.11
2023-04-16T10:25:57.388Z,21.65
2023-04-16T10:28:25.474Z,21.33
2023-04-16T10:30:56.143Z,20.58
2023-04-16T10:33:28.369Z,20.37
2023-04-16T10:36:26.647Z,20.63
2023-04-16T10:38:59.567Z,21.10
2023-04-16T10:41:27.255Z,21.61
2023-04-16T10:44:06.515Z,20.90
2023-04-16T10:46:40.900Z,21.36
2023-04-16T10:49:19.167Z,20.75
2023-04-16T10:52:02.373Z,19.54
2023-04-16T10:54:31.184Z,21.17
2023-04-16T10:57:04.273Z,18.99
2023-04-16T10:59:35.032Z,18.00
2023-04-16T11:02:09.710Z,17.10
2023-04-16T11:04:39.379Z,18.01
2023-04-16T11:07:16.585Z,16.30
2023-04-16T11:09:47.147Z,16.06
2023-04-16T11:12:16.642Z,17.17
2023-04-16T11:14:55.001Z,16.98
2023-04-16T11:17:22.831Z,16.64
2023-04-16T11:19:50.713Z,16.90
2023-04-16T11:22:21.363Z,16.41
2023-04-16T11:24:57.084Z,16.37
2023-04-16T11:27:24.848Z,16.04
2023-04-16T11:30:04.286Z,16.16
2023-04-16T11:32:34.648Z,16.27
2023-04-16T11:35:04.801Z,17.42
2023-04-16T11:37:36.809Z,19.04
2023-04-16T11:40:09.665Z,18.30
2023-04-16T11:42:40.746Z,17.43
2023-04-16T11:45:11.013Z,18.96
2023-04-16T11:47:51.890Z,17.75
2023-04-16T11:50:24.958Z,18.05
2023-04-16T11:52:54.079Z,18.15
2023-04-16T11:55:22.435Z,17.66
2023-04-16T11:57:51.741Z,17.30
2023-04-16T12:00:22.225Z,18.44
2023-04-16T12:02:53.917Z,18.33
2023-04-16T12:05:31.104Z,18.03
2023-04-16T12:08:00.284Z,17.07
2023-04-16T12:10:28.372Z,17.09
2023-04-16T12:13:13.158Z,15.39
2023-04-16T12:15:53.610Z,16.76
2023-04-16T12:18:27.106Z,18.98
2023-04-16T12:20:55.104Z,17.43
2023-04-16T12:23:33.850Z,17.34
2023-04-16T12:26:10.561Z,18.07
2023-04-16T12:28:40.240Z,16.43
2023-04-16T12:31:08.503Z,16.64
2023-04-16T12:33:36.322Z,17.35
2023-04-16T12:36:19.821Z,17.73
2023-04-16T12:38:47.416Z,18.64
2023-04-16T12:41:15.115Z,18.82
2023-04-16T12:43:42.645Z,18.74
2023-04-16T12:46:11.018Z,17.92
2023-04-16T12:48:38.699Z,18.05
2023-04-16T12:51:06.550Z,18.65
2023-04-16T12:53:34.872Z,18.56
2023-04-16T12:56:02.736Z,17.26
2023-04-16T12:58:30.407Z,17.43
2023-04-16T13:00:58.394Z,18.08
2023-04-16T13:03:26.344Z,16.69
2023-04-16T13:05:54.139Z,16.65
2023-04-16T13:08:21.712Z,15.68
2023-04-16T13:10:49.297Z,16.95
2023-04-16T13:13:17.003Z,17.94
2023-04-16T13:15:44.533Z,16.56
2023-04-16T13:18:12.198Z,17.37
2023-04-16T13:20:39.779Z,16.82
2023-04-16T13:23:07.324Z,18.44
2023-04-16T13:25:35.152Z,17.46
2023-04-16T13:28:02.732Z,18.23
2023-04-16T13:30:31.772Z,17.77
2023-04-16T13:32:59.838Z,19.06
2023-04-16T13:35:29.466Z,18.88
2023-04-16T13:37:57.017Z,19.20
2023-04-16T13:40:24.640Z,18.11
2023-04-16T13:42:52.262Z,18.67
2023-04-16T13:45:22.913Z,18.10
2023-04-16T13:47:50.788Z,19.03
2023-04-16T13:50:18.488Z,18.23
2023-04-16T13:52:46.033Z,20.68
2023-04-16T13:55:19.114Z,19.13
2023-04-16T13:57:47.713Z,19.40
2023-04-16T14:00:16.104Z,18.20
2023-04-16T14:02:45.946Z,18.75
2023-04-16T14:05:13.554Z,19.70
2023-04-16T14:07:41.339Z,18.37
2023-04-16T14:10:09.443Z,18.45
2023-04-16T14:12:38.573Z,18.85
2023-04-16T14:15:09.514Z,19.30
2023-04-16T14:17:37.405Z,19.02
2023-04-16T14:20:06.130Z,17.87
2023-04-16T14:22:33.916Z,19.38
2023-04-16T14:25:01.684Z,18.90
2023-04-16T14:27:30.372Z,18.83
2023-04-16T14:29:58.243Z,19.22
2023-04-16T14:32:26.319Z,19.29
2023-04-16T14:34:54.204Z,19.13
2023-04-16T14:37:21.893Z,18.25
2023-04-16T14:39:50.517Z,17.02
2023-04-16T14:42:19.636Z,18.96
2023-04-16T14:44:47.121Z,17.69
2023-04-16T14:47:14.615Z,17.46
2023-04-16T14:49:42.352Z,18.96
2023-04-16T14:52:10.069Z,18.55
2023-04-16T14:54:37.718Z,17.53
2023-04-16T14:57:06.024Z,17.45
2023-04-16T14:59:33.688Z,16.35
2023-04-16T15:02:01.393Z,16.44
2023-04-16T15:04:29.973Z,17.01
2023-04-16T15:06:59.186Z,17.24
2023-04-16T15:09:27.516Z,16.84
2023-04-16T15:11:55.352Z,16.89
2023-04-16T15:14:23.044Z,17.45
2023-04-16T15:16:50.761Z,16.74
2023-04-16T15:19:18.607Z,16.77
2023-04-16T15:21:48.640Z,16.32
2023-04-16T15:24:16.741Z,17.99
2023-04-16T15:26:45.244Z,17.16
2023-04-16T15:29:13.230Z,17.44
2023-04-16T15:31:41.192Z,17.11
2023-04-16T15:34:09.238Z,17.41
2023-04-16T15:36:37.006Z,16.85
2023-04-16T15:39:05.378Z,17.31
2023-04-16T15:41:36.286Z,17.76
2023-04-16T15:44:05.986Z,17.07
2023-04-16T15:46:33.718Z,16.41
2023-04-16T15:49:01.956Z,17.70
2023-04-16T15:51:31.631Z,17.47
2023-04-16T15:53:59.396Z,18.24
2023-04-16T15:56:27.362Z,17.02
2023-04-16T15:58:55.487Z,17.71
2023-04-16T16:01:23.275Z,17.18
2023-04-16T16:03:51.569Z,17.54
2023-04-16T16:06:20.857Z,18.42
2023-04-16T16:08:50.176Z,17.83
2023-04-16T16:11:23.361Z,17.03
2023-04-16T16:13:51.228Z,17.87
2023-04-16T16:16:19.589Z,17.48
2023-04-16T16:18:47.781Z,18.39
2023-04-16T16:21:15.612Z,17.11
2023-04-16T16:23:43.551Z,16.46
2023-04-16T16:26:11.217Z,16.91
2023-04-16T16:28:38.849Z,17.17
2023-04-16T16:31:07.538Z,16.86
2023-04-16T16:33:36.893Z,17.73
2023-04-16T16:36:10.357Z,18.45
2023-04-16T16:38:40.027Z,18.64
2023-04-16T16:41:07.978Z,19.61
2023-04-16T16:43:42.323Z,19.05
2023-04-16T16:46:10.887Z,18.89
2023-04-16T16:48:38.468Z,20.03
2023-04-16T16:51:09.696Z,19.47
2023-04-16T16:53:38.080Z,19.93
2023-04-16T16:56:06.146Z,19.67
2023-04-16T16:58:33.898Z,19.20
2023-04-16T17:01:02.358Z,19.36
2023-04-16T17:03:31.298Z,19.38
2023-04-16T17:05:59.166Z,21.66
2023-04-16T17:08:26.886Z,22.29
2023-04-16T17:10:55.278Z,21.60
2023-04-16T17:13:25.129Z,23.39
2023-04-16T17:15:52.902Z,21.99
2023-04-16T17:18:21.046Z,21.55
2023-04-16T17:20:49.323Z,22.73
2023-04-16T17:23:17.630Z,21.49
2023-04-16T17:25:45.502Z,22.31
2023-04-16T17:28:13.763Z,22.14
2023-04-16T17:30:41.642Z,22.49
2023-04-16T17:33:09.909Z,23.33
2023-04-16T17:35:40.132Z,22.66
2023-04-16T17:38:08.080Z,24.13
2023-04-16T17:40:36.119Z,23.70
2023-04-16T17:43:04.518Z,23.86
2023-04-16T17:45:33.679Z,23.73
2023-04-16T17:48:05.329Z,23.36
2023-04-16T17:50:33.268Z,23.85
2023-04-16T17:53:03.747Z,24.33
2023-04-16T17:55:32.284Z,23.09
2023-04-16T17:58:00.592Z,23.77
2023-04-16T18:00:28.563Z,24.11
2023-04-16T18:02:57.756Z,24.38
2023-04-16T18:05:26.092Z,23.96
2023-04-16T18:07:55.425Z,24.18
2023-04-16T18:10:23.373Z,25.30
2023-04-16T18:12:51.849Z,24.74
2023-04-16T18:15:19.759Z,24.21
2023-04-16T18:17:47.334Z,24.09
2023-04-16T18:20:19.342Z,25.61
2023-04-16T18:22:47.286Z,25.18
2023-04-16T18:25:16.108Z,25.35
2023-04-16T18:27:44.834Z,24.17
2023-04-16T18:30:20.002Z,22.94
2023-04-16T18:33:16.468Z,23.35
2023-04-16T18:35:40.418Z,23.71
2023-04-16T18:38:08.325Z,24.40
2023-04-16T18:40:37.081Z,23.73
2023-04-16T18:43:06.011Z,22.88
2023-04-16T18:45:34.766Z,23.38
2023-04-16T18:48:05.555Z,22.95
2023-04-16T18:50:34.766Z,22.09
2023-04-16T18:53:02.821Z,23.14
2023-04-16T18:55:31.036Z,23.04
2023-04-16T18:57:58.982Z,22.90
2023-04-16T19:00:26.948Z,22.88
2023-04-16T19:02:55.041Z,23.25
2023-04-16T19:05:23.085Z,23.08
2023-04-16T19:07:50.954Z,23.12
2023-04-16T19:10:18.691Z,22.85
2023-04-16T19:12:46.666Z,22.26
2023-04-16T19:15:14.893Z,22.18
2023-04-16T19:17:42.793Z,22.11
2023-04-16T19:20:11.586Z,20.76
2023-04-16T19:22:39.503Z,22.21
2023-04-16T19:25:08.039Z,21.98
2023-04-16T19:27:36.294Z,22.04
2023-04-16T19:30:04.738Z,21.08
2023-04-16T19:32:33.101Z,21.99
2023-04-16T19:35:00.695Z,22.31
2023-04-16T19:37:28.592Z,22.95
2023-04-16T19:39:56.685Z,24.03
2023-04-16T19:42:24.637Z,23.08
2023-04-16T19:44:52.277Z,22.32
2023-04-16T19:47:21.207Z,22.56
2023-04-16T19:49:51.187Z,23.39
2023-04-16T19:52:19.140Z,22.05
2023-04-16T19:54:47.074Z,21.94
2023-04-16T19:57:14.656Z,22.09
2023-04-16T19:59:42.409Z,21.41
2023-04-16T20:02:10.748Z,22.22
2023-04-16T20:04:38.434Z,23.07
2023-04-16T20:07:08.427Z,21.73
2023-04-16T20:09:36.180Z,22.44
2023-04-16T20:12:05.987Z,22.40
2023-04-16T20:14:33.819Z,23.07
2023-04-16T20:17:01.980Z,22.56
2023-04-16T20:19:37.862Z,22.86
2023-04-16T20:22:06.610Z,22.41
2023-04-16T20:24:34.442Z,22.78
2023-04-16T20:27:02.133Z,22.07
2023-04-16T20:29:29.948Z,21.22
2023-04-16T20:31:57.674Z,22.19
2023-04-16T20:34:26.004Z,22.24
2023-04-16T20:36:54.906Z,21.83
2023-04-16T20:39:22.773Z,22.55
2023-04-16T20:41:56.989Z,24.41
2023-04-16T20:44:33.309Z,22.67
2023-04-16T20:47:00.972Z,21.49
2023-04-16T20:49:30.162Z,21.99
2023-04-16T20:51:57.973Z,22.20
2023-04-16T20:54:25.671Z,22.95
2023-04-16T20:56:53.166Z,22.78
2023-04-16T20:59:20.772Z,22.56
2023-04-16T21:01:48.610Z,21.54
2023-04-16T21:04:16.864Z,22.05
2023-04-16T21:07:04.381Z,21.18
2023-04-16T21:09:32.232Z,21.17
2023-04-16T21:11:59.765Z,21.75
2023-04-16T21:14:27.378Z,21.64
2023-04-16T21:16:55.169Z,22.87
2023-04-16T21:19:22.744Z,23.44
2023-04-16T21:21:50.751Z,22.24
2023-04-16T21:24:18.300Z,22.42
2023-04-16T21:26:46.053Z,21.01
2023-04-16T21:29:13.803Z,20.84
2023-04-16T21:31:41.531Z,21.29
2023-04-16T21:34:09.109Z,20.26
2023-04-16T21:36:36.716Z,21.65
2023-04-16T21:39:04.251Z,21.31
2023-04-16T21:41:31.856Z,21.79
2023-04-16T21:43:59.489Z,22.61
2023-04-16T21:46:27.857Z,21.88
2023-04-16T21:48:55.595Z,21.59
2023-04-16T21:51:29.340Z,21.59
2023-04-16T21:53:57.627Z,21.44
2023-04-16T21:56:25.854Z,22.14
2023-04-16T21:58:53.560Z,23.16
2023-04-16T22:01:21.330Z,23.10
2023-04-16T22:03:51.909Z,21.94
2023-04-16T22:06:20.601Z,21.56
2023-04-16T22:08:49.819Z,21.09
2023-04-16T22:11:17.607Z,21.04
2023-04-16T22:13:46.400Z,21.52
2023-04-16T22:16:14.148Z,21.44
2023-04-16T22:18:41.926Z,22.62
2023-04-16T22:21:09.485Z,22.49
2023-04-16T22:23:36.985Z,22.21
2023-04-16T22:26:04.961Z,21.63
2023-04-16T22:28:32.596Z,22.68
2023-04-16T22:31:00.194Z,22.52
2023-04-16T22:33:31.055Z,21.25
2023-04-16T22:35:59.845Z,22.04
2023-04-16T22:38:27.606Z,22.35
2023-04-16T22:40:55.356Z,22.19
2023-04-16T22:43:22.988Z,21.54
2023-04-16T22:45:50.560Z,21.68
2023-04-16T22:48:18.696Z,21.20
2023-04-16T22:50:48.660Z,21.52
2023-04-16T22:53:17.215Z,22.04
2023-04-16T22:55:44.849Z,22.18
2023-04-16T22:58:12.462Z,22.88
2023-04-16T23:00:40.222Z,21.66
2023-04-16T23:03:08.086Z,22.54
2023-04-16T23:05:35.816Z,23.18
2023-04-16T23:08:03.376Z,22.26
2023-04-16T23:10:31.044Z,23.08
2023-04-16T23:12:58.695Z,22.60
2023-04-16T23:15:26.387Z,22.69
2023-04-16T23:17:54.053Z,21.77
2023-04-16T23:20:21.675Z,22.96
2023-04-16T23:22:49.312Z,22.44
2023-04-16T23:25:18.186Z,21.78
2023-04-16T23:27:45.760Z,22.14
2023-04-16T23:30:13.767Z,22.49
2023-04-16T23:32:42.722Z,22.72
2023-04-16T23:35:10.430Z,22.62
2023-04-16T23:37:37.995Z,22.82
2023-04-16T23:40:06.649Z,23.04
2023-04-16T23:42:34.393Z,22.27
2023-04-16T23:45:01.958Z,22.65
2023-04-16T23:47:30.185Z,23.01
2023-04-16T23:49:57.766Z,23.14
2023-04-16T23:52:25.409Z,23.22
2023-04-16T23:54:52.903Z,23.02
2023-04-16T23:57:20.539Z,22.34
2023-04-16T23:59:48.113Z,23.03
